createdAt,value
2018-06-05T00:00:31.554Z,50.38
2018-06-05T00:02:59.974Z,54.20
2018-06-05T00:05:28.415Z,55.20
2018-06-05T00:07:56.822Z,54.23
2018-06-05T00:10:25.228Z,53.63
2018-06-05T00:12:53.633Z,61.33
2018-06-05T00:15:22.034Z,62.50
2018-06-05T00:17:50.448Z,60.98
2018-06-05T00:20:18.885Z,62.15
2018-06-05T00:22:47.303Z,63.45
2018-06-05T00:25:15.721Z,63.38
2018-06-05T00:27:44.147Z,58.68
2018-06-05T00:30:12.555Z,53.10
2018-06-05T00:32:40.958Z,58.38
2018-06-05T00:35:09.358Z,54.73
2018-06-05T00:37:37.778Z,58.80
2018-06-05T00:40:05.903Z,52.83
2018-06-05T00:42:34.309Z,62.70
2018-06-05T00:45:02.714Z,60.52
2018-06-05T00:47:31.139Z,61.20
2018-06-05T00:49:59.554Z,60.33
2018-06-05T00:52:27.962Z,61.80
2018-06-05T00:54:56.358Z,70.70
2018-06-05T00:57:24.771Z,78.95
2018-06-05T00:59:53.178Z,79.03
2018-06-05T01:02:21.578Z,76.25
2018-06-05T01:04:50.021Z,77.47
2018-06-05T01:07:18.431Z,74.17
2018-06-05T01:09:47.194Z,71.07
2018-06-05T01:12:15.607Z,74.80
2018-06-05T01:14:44.044Z,69.65
2018-06-05T01:17:12.150Z,69.22
2018-06-05T01:19:40.553Z,67.78
2018-06-05T01:22:08.963Z,64.85
2018-06-05T01:24:37.367Z,75.03
2018-06-05T01:27:05.839Z,69.87
2018-06-05T01:29:34.308Z,67.72
2018-06-05T01:32:02.739Z,67.37
2018-06-05T01:34:31.134Z,68.67
2018-06-05T01:36:59.548Z,69.10
2018-06-05T01:39:27.967Z,66.75
2018-06-05T01:41:56.379Z,67.70
2018-06-05T01:44:24.821Z,67.95
2018-06-05T01:46:53.242Z,70.37
2018-06-05T01:49:21.688Z,73.75
2018-06-05T01:51:50.104Z,64.40
2018-06-05T01:54:18.506Z,65.75
2018-06-05T01:56:46.919Z,62.62
2018-06-05T01:59:15.322Z,64.55
2018-06-05T02:01:43.710Z,68.90
2018-06-05T02:04:12.186Z,64.45
2018-06-05T02:06:40.615Z,63.15
2018-06-05T02:09:09.130Z,60.40
2018-06-05T02:11:37.547Z,57.03
2018-06-05T02:14:05.966Z,54.55
2018-06-05T02:16:34.367Z,56.02
2018-06-05T02:19:02.778Z,57.83
2018-06-05T02:21:31.187Z,54.60
2018-06-05T02:23:59.603Z,53.78
2018-06-05T02:26:28.034Z,49.18
2018-06-05T02:28:56.460Z,50.08
2018-06-05T02:31:24.906Z,48.17
2018-06-05T02:33:53.021Z,47.78
2018-06-05T02:36:21.411Z,45.67
2018-06-05T02:38:49.808Z,44.80
2018-06-05T02:41:18.221Z,46.40
2018-06-05T02:43:46.670Z,48.60
2018-06-05T02:46:15.087Z,47.08
2018-06-05T02:48:43.544Z,49.70
2018-06-05T02:51:11.969Z,51.50
2018-06-05T02:53:40.383Z,58.80
2018-06-05T02:56:08.783Z,55.50
2018-06-05T02:58:37.194Z,57.62
2018-06-05T03:01:05.598Z,60.08
2018-06-05T03:03:34.024Z,58.28
2018-06-05T03:06:02.450Z,57.83
2018-06-05T03:08:30.886Z,63.75
2018-06-05T03:10:59.302Z,69.37
2018-06-05T03:13:27.739Z,60.78
2018-06-05T03:15:56.163Z,63.15
2018-06-05T03:18:24.564Z,65.05
2018-06-05T03:20:53.010Z,60.58
2018-06-05T03:23:21.106Z,60.12
2018-06-05T03:25:49.498Z,60.80
2018-06-05T03:28:17.906Z,60.10
2018-06-05T03:30:46.323Z,51.45
2018-06-05T03:33:14.720Z,47.98
2018-06-05T03:35:43.127Z,44.53
2018-06-05T03:38:11.547Z,42.70
2018-06-05T03:40:39.945Z,40.43
2018-06-05T03:43:08.348Z,40.78
2018-06-05T03:45:36.758Z,39.80
2018-06-05T03:48:05.162Z,42.10
2018-06-05T03:50:33.567Z,41.35
2018-06-05T03:53:01.989Z,37.98
2018-06-05T03:55:30.390Z,38.83
2018-06-05T03:57:58.793Z,37.08
2018-06-05T04:00:27.214Z,36.20
2018-06-05T04:02:55.626Z,35.80
2018-06-05T04:05:24.065Z,37.48
2018-06-05T04:07:52.491Z,41.95
2018-06-05T04:10:20.905Z,41.83
2018-06-05T04:12:49.370Z,40.00
2018-06-05T04:15:17.786Z,40.28
2018-06-05T04:17:46.187Z,39.00
2018-06-05T04:20:14.601Z,37.40
2018-06-05T04:22:43.025Z,40.70
2018-06-05T04:25:11.471Z,40.50
2018-06-05T04:27:39.906Z,44.93
2018-06-05T04:30:08.326Z,45.25
2018-06-05T04:32:36.744Z,45.40
2018-06-05T04:35:05.159Z,42.60
2018-06-05T04:37:33.562Z,45.65
2018-06-05T04:40:02.007Z,40.98
2018-06-05T04:42:30.421Z,39.60
2018-06-05T04:44:58.848Z,45.40
2018-06-05T04:47:27.276Z,41.65
2018-06-05T04:49:55.682Z,41.23
2018-06-05T04:52:24.102Z,41.30
2018-06-05T04:54:52.506Z,38.15
2018-06-05T04:57:20.930Z,37.33
2018-06-05T04:59:49.437Z,36.20
2018-06-05T05:02:17.797Z,38.70
2018-06-05T05:04:46.274Z,40.83
2018-06-05T05:07:14.696Z,40.28
2018-06-05T05:09:43.197Z,41.85
2018-06-05T05:12:11.605Z,45.88
2018-06-05T05:14:40.103Z,42.95
2018-06-05T05:17:08.526Z,53.60
2018-06-05T05:19:36.930Z,55.30
2018-06-05T05:22:05.372Z,60.08
2018-06-05T05:24:33.790Z,58.63
2018-06-05T05:27:02.200Z,56.35
2018-06-05T05:29:30.617Z,55.43
2018-06-05T05:31:59.038Z,55.80
2018-06-05T05:34:27.441Z,52.35
2018-06-05T05:36:55.835Z,52.40
2018-06-05T05:39:24.241Z,51.35
2018-06-05T05:41:52.679Z,51.08
2018-06-05T05:44:21.076Z,52.05
2018-06-05T05:46:49.492Z,50.45
2018-06-05T05:49:17.882Z,47.88
2018-06-05T05:51:46.298Z,48.83
2018-06-05T05:54:14.695Z,48.80
2018-06-05T05:56:43.103Z,43.65
2018-06-05T05:59:11.589Z,39.95
2018-06-05T06:01:39.999Z,44.80
2018-06-05T06:04:08.418Z,49.83
2018-06-05T06:06:36.881Z,45.55
2018-06-05T06:09:07.928Z,47.35
2018-06-05T06:11:36.345Z,46.28
2018-06-05T06:14:04.779Z,46.95
2018-06-05T06:16:33.207Z,49.75
2018-06-05T06:19:01.302Z,48.65
2018-06-05T06:21:29.734Z,48.60
2018-06-05T06:23:58.138Z,51.08
2018-06-05T06:26:26.252Z,47.88
2018-06-05T06:28:54.644Z,49.25
2018-06-05T06:31:23.087Z,45.63
2018-06-05T06:33:51.470Z,49.15
2018-06-05T06:36:19.903Z,54.23
2018-06-05T06:38:48.310Z,48.45
2018-06-05T06:41:16.718Z,47.38
2018-06-05T06:43:45.147Z,44.53
2018-06-05T06:46:13.560Z,46.18
2018-06-05T06:48:42.043Z,46.65
2018-06-05T06:51:10.394Z,49.38
2018-06-05T06:53:38.804Z,48.70
2018-06-05T06:56:07.245Z,48.33
2018-06-05T06:58:35.655Z,49.90
2018-06-05T07:01:04.074Z,50.45
2018-06-05T07:03:32.506Z,51.20
2018-06-05T07:06:00.939Z,51.02
2018-06-05T07:08:29.351Z,49.95
2018-06-05T07:10:57.790Z,51.08
2018-06-05T07:13:26.206Z,50.10
2018-06-05T07:15:54.639Z,49.05
2018-06-05T07:18:23.067Z,55.67
2018-06-05T07:20:51.506Z,51.42
2018-06-05T07:23:19.921Z,52.70
2018-06-05T07:25:48.330Z,54.90
2018-06-05T07:28:16.734Z,50.98
2018-06-05T07:30:45.158Z,45.80
2018-06-05T07:33:13.577Z,50.33
2018-06-05T07:35:41.995Z,49.70
2018-06-05T07:38:10.442Z,48.05
2018-06-05T07:40:38.849Z,47.60
2018-06-05T07:43:07.270Z,48.60
2018-06-05T07:45:35.699Z,48.63
2018-06-05T07:48:05.026Z,50.95
2018-06-05T07:50:33.438Z,52.70
2018-06-05T07:53:01.842Z,44.70
2018-06-05T07:55:30.263Z,41.20
2018-06-05T07:57:58.690Z,47.38
2018-06-05T08:00:27.099Z,42.58
2018-06-05T08:02:55.522Z,43.78
2018-06-05T08:05:23.934Z,43.35
2018-06-05T08:07:52.350Z,45.35
2018-06-05T08:10:20.766Z,45.70
2018-06-05T08:12:49.187Z,40.28
2018-06-05T08:15:17.585Z,38.00
2018-06-05T08:17:46.006Z,39.85
2018-06-05T08:20:14.414Z,41.10
2018-06-05T08:22:52.461Z,37.60
2018-06-05T08:25:20.883Z,32.85
2018-06-05T08:27:49.290Z,30.88
2018-06-05T08:30:18.228Z,29.90
2018-06-05T08:32:46.650Z,33.73
2018-06-05T08:35:15.075Z,31.45
2018-06-05T08:37:43.554Z,33.92
2018-06-05T08:40:11.927Z,36.10
2018-06-05T08:42:40.403Z,34.08
2018-06-05T08:45:08.856Z,32.45
2018-06-05T08:47:37.266Z,33.60
2018-06-05T08:50:05.707Z,32.17
2018-06-05T08:52:34.141Z,35.08
2018-06-05T08:55:02.572Z,34.58
2018-06-05T08:57:30.992Z,31.95
2018-06-05T08:59:59.474Z,29.18
2018-06-05T09:02:27.849Z,35.25
2018-06-05T09:04:56.263Z,30.97
2018-06-05T09:07:24.675Z,30.68
2018-06-05T09:09:53.074Z,33.42
2018-06-05T09:12:21.487Z,30.43
2018-06-05T09:14:49.943Z,30.80
2018-06-05T09:17:18.358Z,32.25
2018-06-05T09:19:46.783Z,30.17
2018-06-05T09:22:15.265Z,34.23
2018-06-05T09:24:43.699Z,36.45
2018-06-05T09:27:13.970Z,31.07
2018-06-05T09:29:42.440Z,35.30
2018-06-05T09:32:10.887Z,35.00
2018-06-05T09:34:39.335Z,34.88
2018-06-05T09:37:07.803Z,29.63
2018-06-05T09:39:36.224Z,28.70
2018-06-05T09:42:04.640Z,28.87
2018-06-05T09:44:33.098Z,29.07
2018-06-05T09:47:01.550Z,27.75
2018-06-05T09:49:29.955Z,31.62
2018-06-05T09:51:58.441Z,30.08
2018-06-05T09:54:26.869Z,25.77
2018-06-05T09:56:55.300Z,25.50
2018-06-05T09:59:23.745Z,27.37
2018-06-05T10:01:52.203Z,29.50
2018-06-05T10:04:20.620Z,25.15
2018-06-05T10:06:49.045Z,26.70
2018-06-05T10:09:17.452Z,27.95
2018-06-05T10:11:48.495Z,25.82
2018-06-05T10:14:16.916Z,27.27
2018-06-05T10:16:45.375Z,26.95
2018-06-05T10:19:13.817Z,27.48
2018-06-05T10:21:42.229Z,24.07
2018-06-05T10:24:10.656Z,21.65
2018-06-05T10:26:39.078Z,22.95
2018-06-05T10:29:08.582Z,24.52
2018-06-05T10:31:37.943Z,25.40
2018-06-05T10:34:06.363Z,23.50
2018-06-05T10:36:34.788Z,23.80
2018-06-05T10:39:03.295Z,25.40
2018-06-05T10:41:31.720Z,24.90
2018-06-05T10:44:00.130Z,25.12
2018-06-05T10:46:28.528Z,23.62
2018-06-05T10:48:56.641Z,24.45
2018-06-05T10:51:25.048Z,24.47
2018-06-05T10:53:53.475Z,25.70
2018-06-05T10:56:21.908Z,23.22
2018-06-05T10:58:50.345Z,24.67
2018-06-05T11:01:19.541Z,23.30
2018-06-05T11:03:47.986Z,22.27
2018-06-05T11:06:16.409Z,23.98
2018-06-05T11:08:44.882Z,24.60
2018-06-05T11:11:13.318Z,24.45
2018-06-05T11:13:41.730Z,25.35
2018-06-05T11:16:11.030Z,24.02
2018-06-05T11:18:39.476Z,24.47
2018-06-05T11:21:07.899Z,30.25
2018-06-05T11:23:36.336Z,24.82
2018-06-05T11:26:04.778Z,24.65
2018-06-05T11:28:33.195Z,25.02
2018-06-05T11:31:01.607Z,26.00
2018-06-05T11:33:30.027Z,25.25
2018-06-05T11:35:58.486Z,25.52
2018-06-05T11:38:26.912Z,25.15
2018-06-05T11:40:55.334Z,26.52
2018-06-05T11:43:23.757Z,26.62
2018-06-05T11:45:52.170Z,26.55
2018-06-05T11:48:20.588Z,28.30
2018-06-05T11:50:49.023Z,29.72
2018-06-05T11:53:17.452Z,32.58
2018-06-05T11:55:45.935Z,31.02
2018-06-05T11:58:14.916Z,31.12
2018-06-05T12:00:43.511Z,31.23
2018-06-05T12:03:11.906Z,28.35
2018-06-05T12:05:41.499Z,28.52
2018-06-05T12:08:09.623Z,28.30
2018-06-05T12:10:38.116Z,29.15
2018-06-05T12:13:06.875Z,28.07
2018-06-05T12:15:35.275Z,27.30
2018-06-05T12:18:03.694Z,32.05
2018-06-05T12:20:32.103Z,30.88
2018-06-05T12:23:00.572Z,31.68
2018-06-05T12:25:28.987Z,30.60
2018-06-05T12:27:57.446Z,29.35
2018-06-05T12:30:25.869Z,29.42
2018-06-05T12:32:54.301Z,31.02
2018-06-05T12:35:23.048Z,28.75
2018-06-05T12:37:51.459Z,28.62
2018-06-05T12:40:19.914Z,30.70
2018-06-05T12:42:48.322Z,29.65
2018-06-05T12:45:16.755Z,27.70
2018-06-05T12:47:45.170Z,29.50
2018-06-05T12:50:13.595Z,29.37
2018-06-05T12:52:42.011Z,28.23
2018-06-05T12:55:10.426Z,26.87
2018-06-05T12:57:38.842Z,28.45
2018-06-05T13:00:07.269Z,26.87
2018-06-05T13:02:35.671Z,26.30
2018-06-05T13:05:04.654Z,26.33
2018-06-05T13:07:33.190Z,27.37
2018-06-05T13:10:01.608Z,27.50
2018-06-05T13:12:30.040Z,26.85
2018-06-05T13:14:58.454Z,26.73
2018-06-05T13:17:27.553Z,27.85
2018-06-05T13:19:55.955Z,27.80
2018-06-05T13:22:24.373Z,28.83
2018-06-05T13:24:52.784Z,29.37
2018-06-05T13:27:21.193Z,28.92
2018-06-05T13:29:49.704Z,30.88
2018-06-05T13:32:18.158Z,28.52
2018-06-05T13:34:46.609Z,28.07
2018-06-05T13:37:15.035Z,28.45
2018-06-05T13:39:43.475Z,27.27
2018-06-05T13:42:11.889Z,29.23
2018-06-05T13:44:40.305Z,29.15
2018-06-05T13:47:08.727Z,29.37
2018-06-05T13:49:37.158Z,27.22
2018-06-05T13:52:05.574Z,28.83
2018-06-05T13:54:33.990Z,28.20
2018-06-05T13:57:02.405Z,26.90
2018-06-05T13:59:30.816Z,32.48
2018-06-05T14:01:59.235Z,34.08
2018-06-05T14:04:27.638Z,27.90
2018-06-05T14:06:55.761Z,26.77
2018-06-05T14:09:24.188Z,26.35
2018-06-05T14:11:52.627Z,25.77
2018-06-05T14:14:21.046Z,27.15
2018-06-05T14:16:49.450Z,27.02
2018-06-05T14:19:17.874Z,26.90
2018-06-05T14:21:46.327Z,26.73
2018-06-05T14:24:14.756Z,27.67
2018-06-05T14:26:43.171Z,28.32
2018-06-05T14:29:11.619Z,29.25
2018-06-05T14:31:40.046Z,29.87
2018-06-05T14:34:08.474Z,29.07
2018-06-05T14:36:36.878Z,28.62
2018-06-05T14:39:07.735Z,29.32
2018-06-05T14:41:36.234Z,27.93
2018-06-05T14:44:04.666Z,29.77
2018-06-05T14:46:33.080Z,30.40
2018-06-05T14:49:01.518Z,31.05
2018-06-05T14:51:29.933Z,28.65
2018-06-05T14:53:58.347Z,30.43
2018-06-05T14:56:27.184Z,28.98
2018-06-05T14:58:55.593Z,27.77
2018-06-05T15:01:24.042Z,29.32
2018-06-05T15:03:52.465Z,28.67
2018-06-05T15:06:20.884Z,29.02
2018-06-05T15:08:49.290Z,31.05
2018-06-05T15:11:17.703Z,29.35
2018-06-05T15:13:46.527Z,30.88
2018-06-05T15:16:14.959Z,30.05
2018-06-05T15:18:43.377Z,32.85
2018-06-05T15:21:11.791Z,32.50
2018-06-05T15:23:40.206Z,33.25
2018-06-05T15:26:08.627Z,29.10
2018-06-05T15:28:37.050Z,33.63
2018-06-05T15:31:05.165Z,34.70
2018-06-05T15:33:33.594Z,32.75
2018-06-05T15:36:02.015Z,32.98
2018-06-05T15:38:30.459Z,32.58
2018-06-05T15:40:58.895Z,30.95
2018-06-05T15:43:27.306Z,30.05
2018-06-05T15:45:55.727Z,32.58
2018-06-05T15:48:24.149Z,31.75
2018-06-05T15:50:52.578Z,30.55
2018-06-05T15:53:21.014Z,30.72
2018-06-05T15:55:49.436Z,29.63
2018-06-05T15:58:17.863Z,30.00
2018-06-05T16:00:46.418Z,34.18
2018-06-05T16:03:14.845Z,31.75
2018-06-05T16:05:43.263Z,31.45
2018-06-05T16:08:11.694Z,33.40
2018-06-05T16:10:40.111Z,32.73
2018-06-05T16:13:08.527Z,32.30
2018-06-05T16:15:36.945Z,32.50
2018-06-05T16:18:05.442Z,33.90
2018-06-05T16:20:33.858Z,32.48
2018-06-05T16:23:02.335Z,31.50
2018-06-05T16:25:30.762Z,29.75
2018-06-05T16:27:59.175Z,33.55
2018-06-05T16:30:27.622Z,30.62
2018-06-05T16:32:56.042Z,32.55
2018-06-05T16:35:24.562Z,31.90
2018-06-05T16:37:52.967Z,32.15
2018-06-05T16:40:21.403Z,31.48
2018-06-05T16:42:49.860Z,32.33
2018-06-05T16:45:18.551Z,30.00
2018-06-05T16:47:47.002Z,29.75
2018-06-05T16:50:15.431Z,31.20
2018-06-05T16:52:43.858Z,31.62
2018-06-05T16:55:12.280Z,31.10
2018-06-05T16:57:40.690Z,29.75
2018-06-05T17:00:09.151Z,28.80
2018-06-05T17:02:37.567Z,29.85
2018-06-05T17:05:06.092Z,31.60
2018-06-05T17:07:34.502Z,29.32
2018-06-05T17:10:02.928Z,28.65
2018-06-05T17:12:31.339Z,27.42
2018-06-05T17:14:59.773Z,27.25
2018-06-05T17:17:28.204Z,25.12
2018-06-05T17:19:56.637Z,24.07
2018-06-05T17:22:25.065Z,25.25
2018-06-05T17:24:53.982Z,23.42
2018-06-05T17:27:22.464Z,25.25
2018-06-05T17:29:50.843Z,24.60
2018-06-05T17:32:19.292Z,22.42
2018-06-05T17:34:47.730Z,23.65
2018-06-05T17:37:16.138Z,21.85
2018-06-05T17:39:44.563Z,22.77
2018-06-05T17:42:12.707Z,20.90
2018-06-05T17:44:41.129Z,19.77
2018-06-05T17:47:09.571Z,23.45
2018-06-05T17:49:37.990Z,22.37
2018-06-05T17:52:06.091Z,21.80
2018-06-05T17:54:34.506Z,21.77
2018-06-05T17:57:02.927Z,21.20
2018-06-05T17:59:31.120Z,22.07
2018-06-05T18:01:59.542Z,20.08
2018-06-05T18:04:27.957Z,19.42
2018-06-05T18:06:56.387Z,20.80
2018-06-05T18:09:24.803Z,20.80
2018-06-05T18:11:53.224Z,20.52
2018-06-05T18:14:21.634Z,21.52
2018-06-05T18:16:50.056Z,21.93
2018-06-05T18:19:18.462Z,20.35
2018-06-05T18:21:46.886Z,21.73
2018-06-05T18:24:15.322Z,21.82
2018-06-05T18:26:43.769Z,19.02
2018-06-05T18:29:12.254Z,21.15
2018-06-05T18:31:41.190Z,21.25
2018-06-05T18:34:09.609Z,19.17
2018-06-05T18:36:38.046Z,19.60
2018-06-05T18:39:08.650Z,19.75
2018-06-05T18:41:36.777Z,19.75
2018-06-05T18:44:05.190Z,23.87
2018-06-05T18:46:33.624Z,23.00
2018-06-05T18:49:02.121Z,19.25
2018-06-05T18:51:30.538Z,20.15
2018-06-05T18:53:58.982Z,24.57
2018-06-05T18:56:27.398Z,20.65
2018-06-05T18:58:55.825Z,21.68
2018-06-05T19:01:24.235Z,20.32
2018-06-05T19:03:52.658Z,24.43
2018-06-05T19:06:21.102Z,20.37
2018-06-05T19:08:50.198Z,21.93
2018-06-05T19:11:18.630Z,24.35
2018-06-05T19:13:47.043Z,20.32
2018-06-05T19:16:15.482Z,29.55
2018-06-05T19:18:43.907Z,25.48
2018-06-05T19:21:12.336Z,21.70
2018-06-05T19:23:40.759Z,21.25
2018-06-05T19:26:09.165Z,23.02
2018-06-05T19:28:37.603Z,26.48
2018-06-05T19:31:06.043Z,21.55
2018-06-05T19:33:34.485Z,21.82
2018-06-05T19:36:02.890Z,21.68
2018-06-05T19:38:31.350Z,25.12
2018-06-05T19:40:59.788Z,23.12
2018-06-05T19:43:28.220Z,22.13
2018-06-05T19:47:25.843Z,23.25
2018-06-05T19:49:54.274Z,23.15
2018-06-05T19:52:22.693Z,23.55
2018-06-05T19:54:51.146Z,25.82
2018-06-05T19:57:19.586Z,25.97
2018-06-05T19:59:48.023Z,24.43
2018-06-05T20:02:16.427Z,25.90
2018-06-05T20:04:44.848Z,24.47
2018-06-05T20:07:13.651Z,24.57
2018-06-05T20:09:42.065Z,23.22
2018-06-05T20:12:10.487Z,24.87
2018-06-05T20:14:38.934Z,24.75
2018-06-05T20:17:07.350Z,22.85
2018-06-05T20:19:35.770Z,25.57
2018-06-05T20:22:04.186Z,28.90
2018-06-05T20:24:32.619Z,23.27
2018-06-05T20:27:01.033Z,25.70
2018-06-05T20:29:29.454Z,28.80
2018-06-05T20:31:57.894Z,26.75
2018-06-05T20:34:26.310Z,28.38
2018-06-05T20:36:54.738Z,27.37
2018-06-05T20:39:23.153Z,25.65
2018-06-05T20:41:51.582Z,25.40
2018-06-05T20:44:20.007Z,29.60
2018-06-05T20:46:48.407Z,28.77
2018-06-05T20:49:17.148Z,28.00
2018-06-05T20:51:46.890Z,29.32
2018-06-05T20:54:15.362Z,29.12
2018-06-05T20:56:43.785Z,28.65
2018-06-05T20:59:12.221Z,30.90
2018-06-05T21:01:40.631Z,27.65
2018-06-05T21:04:09.083Z,28.45
2018-06-05T21:06:37.503Z,29.92
2018-06-05T21:09:07.361Z,32.35
2018-06-05T21:11:35.858Z,31.17
2018-06-05T21:14:04.427Z,32.55
2018-06-05T21:16:32.842Z,33.35
2018-06-05T21:19:01.286Z,35.75
2018-06-05T21:21:29.699Z,29.40
2018-06-05T21:23:58.134Z,31.65
2018-06-05T21:26:26.542Z,34.27
2018-06-05T21:28:54.974Z,32.00
2018-06-05T21:31:23.399Z,33.33
2018-06-05T21:33:51.852Z,32.63
2018-06-05T21:36:21.456Z,36.95
2018-06-05T21:38:49.867Z,33.15
2018-06-05T21:41:18.418Z,34.27
2018-06-05T21:43:47.220Z,33.78
2018-06-05T21:46:16.008Z,34.48
2018-06-05T21:48:44.457Z,33.50
2018-06-05T21:51:12.909Z,34.18
2018-06-05T21:53:41.410Z,33.88
2018-06-05T21:56:10.133Z,33.80
2018-06-05T21:58:38.935Z,35.52
2018-06-05T22:01:07.359Z,35.08
2018-06-05T22:03:35.811Z,38.65
2018-06-05T22:06:04.230Z,36.58
2018-06-05T22:08:32.703Z,37.75
2018-06-05T22:11:01.114Z,34.40
2018-06-05T22:13:29.550Z,34.92
2018-06-05T22:15:57.987Z,39.85
2018-06-05T22:18:26.403Z,39.45
2018-06-05T22:20:54.834Z,39.38
2018-06-05T22:23:23.258Z,40.63
2018-06-05T22:25:51.730Z,40.30
2018-06-05T22:28:20.146Z,37.40
2018-06-05T22:30:48.589Z,38.15
2018-06-05T22:33:17.010Z,34.30
2018-06-05T22:35:45.447Z,32.90
2018-06-05T22:38:16.238Z,33.10
2018-06-05T22:40:44.674Z,38.02
2018-06-05T22:43:13.162Z,35.58
2018-06-05T22:45:41.586Z,37.00
2018-06-05T22:48:10.203Z,36.90
2018-06-05T22:50:38.670Z,38.90
2018-06-05T22:53:07.121Z,39.30
2018-06-05T22:55:35.554Z,37.75
2018-06-05T22:58:04.016Z,39.50
2018-06-05T23:00:33.443Z,36.50
2018-06-05T23:03:01.909Z,37.35
2018-06-05T23:05:30.370Z,38.28
2018-06-05T23:07:58.809Z,35.75
2018-06-05T23:10:27.236Z,39.53
2018-06-05T23:12:55.647Z,41.20
2018-06-05T23:15:24.067Z,40.95
2018-06-05T23:17:52.511Z,42.50
2018-06-05T23:20:20.930Z,43.60
2018-06-05T23:22:49.351Z,40.50
2018-06-05T23:25:17.777Z,41.33
2018-06-05T23:27:46.253Z,41.60
2018-06-05T23:30:14.663Z,39.23
2018-06-05T23:32:43.163Z,40.70
2018-06-05T23:35:11.576Z,39.60
2018-06-05T23:37:40.007Z,37.88
2018-06-05T23:40:08.479Z,34.92
2018-06-05T23:42:36.942Z,40.23
2018-06-05T23:45:05.434Z,34.00
2018-06-05T23:47:33.848Z,34.53
2018-06-05T23:50:04.901Z,35.95
2018-06-05T23:52:33.335Z,38.80
2018-06-05T23:55:01.742Z,36.00
2018-06-05T23:57:30.155Z,41.23
2018-06-05T23:59:58.583Z,42.98
